Main page
METAR-TAF:

METAR-TAF

Airports :

Berbérati Airport

Berbérati, Central African Republic

latitude: 04-15N, longitude: 015-48E, elevation: 582 m

Current weather observation

The report was made 1 hour and 7 minutes ago, at 08:00 UTC
Wind 8 kt from the West
Temperature 25°C
Humidity 83%
Pressure 1016 hPa
Visibility 10 km or more
Scattered clouds at a height of 800 ft

METAR: FEFT 240800Z 28008KT 9999 SCT008 25/22 Q1016

Time: 10:07 (09:07 UTC)


TAF: missing

Weather observations and forecasts of more than 4000 airports (METAR and TAF reports).

The available stations are represented by yellow and red dots on the map.

Hover mouse over dot to see the name of the station.

Then click to see weather observations and forecasts.

To change the map : click on the green buttons with a black cross to zoom in, on the green button with a dash to zoom out, or on the green arrows for adjacent maps.


METAR-TAF: